Flight Track Log - Related Links

Times and Time Zones

All times are in EDT time to prevent confusion due to time zone crossing. See the DAL1331 flight status page for this flight to view local times or setup timezone preferences in your user account.

Time Position Orientation Groundspeed Altitude Reporting Facility
EDT Latitude Longitude Course Direction KTS MPH feet Rate Location/Type
Sat 04:39:55 PM 44.8333 -93.2167 117° Southeast 180 207 2,600  Level Minneapolis TRACON
Sat 04:40:55 PM 44.8000 -93.1500 125° Southeast 254 292 4,400 2,150 Climbing Minneapolis TRACON
Sat 04:41:55 PM 44.7667 -93.0500 115° Southeast 284 327 6,900 2,473 Climbing Minneapolis TRACON
Sat 04:42:00 PM 44.7606 -92.7341 115° Southeast  Level Estimated
Sat 04:43:00 PM 44.7197 -92.5720 115° Southeast  Level Estimated
Sat 04:43:23 PM 44.7431 -92.8739 101° East 320 368 10,500  Level Minneapolis Center
Sat 04:44:00 PM 44.6785 -92.4101 115° Southeast  Level Estimated
Sat 04:44:25 PM 44.7189 -92.7403 104° East 358 412 12,500  Level Minneapolis Center
Sat 04:45:00 PM 44.6371 -92.2485 117° Southeast  Level Estimated
Sat 04:45:26 PM 44.6792 -92.6089 113° Southeast 370 426 14,900  Level Minneapolis Center
Sat 04:46:28 PM 44.6369 -92.4711 113° Southeast 387 445 16,800 2,015 Climbing Minneapolis Center
Sat 04:47:43 PM 44.5817 -92.2983 114° Southeast 403 464 19,500 1,985 Climbing Minneapolis Center
Sat 04:48:44 PM 44.5336 -92.1606 116° Southeast 397 457 21,300 1,561 Climbing Minneapolis Center
Sat 04:49:46 PM 44.4683 -91.9953 119° Southeast 404 465 22,700 968 Climbing Minneapolis Center
Sat 04:50:48 PM 44.4100 -91.8469 119° Southeast 430 495 23,300 968 Climbing Minneapolis Center
Sat 04:51:50 PM 44.3497 -91.6956 119° Southeast 445 512 24,700 1,113 Climbing Minneapolis Center
Sat 04:52:52 PM 44.2889 -91.5439 119° Southeast 449 517 25,600 968 Climbing Minneapolis Center
Sat 04:53:54 PM 44.2258 -91.3886 119° Southeast 457 526 26,700 1,113 Climbing Minneapolis Center
Sat 04:54:56 PM 44.1575 -91.2172 119° Southeast 458 527 27,900 1,113 Climbing Minneapolis Center
Sat 04:55:58 PM 44.0939 -91.0625 120° Southeast 461 531 29,000 537 Climbing Minneapolis Center
Sat 04:56:59 PM 44.0311 -90.9094 120° Southeast 461 531 29,000  Level Minneapolis Center
Sat 04:58:01 PM 43.9669 -90.7536 120° Southeast 466 536 29,000  Level Minneapolis Center
Sat 04:58:57 PM 43.9022 -90.5983 120° Southeast 470 541 29,000  Level Chicago Center
Sat 04:59:58 PM 43.8367 -90.4414 120° Southeast 472 543 29,000  Level Chicago Center
Sat 05:01:00 PM 43.7650 -90.2686 120° Southeast 470 541 29,000  Level Chicago Center
Sat 05:02:02 PM 43.7036 -90.1089 118° Southeast 474 545 29,000  Level Chicago Center
Sat 05:03:04 PM 43.6764 -89.9319 102° East 468 539 29,000  Level Chicago Center
Sat 05:04:06 PM 43.6381 -89.7583 107° East 471 542 29,000  Level Chicago Center
Sat 05:05:07 PM 43.6050 -89.5833 105° East 472 543 29,000  Level Chicago Center
Sat 05:06:09 PM 43.5700 -89.3767 103° East 473 544 29,000  Level Chicago Center
Sat 05:07:11 PM 43.5375 -89.2017 104° East 473 544 29,000  Level Chicago Center
Sat 05:08:13 PM 43.5058 -89.0292 104° East 467 537 29,000  Level Chicago Center
Sat 05:09:14 PM 43.4731 -88.8550 104° East 470 541 29,000  Level Chicago Center
Sat 05:10:16 PM 43.4408 -88.6856 105° East 464 534 29,000 -48 Level Chicago Center
Sat 05:11:18 PM 43.4028 -88.4919 105° East 464 534 28,900  Descending Chicago Center
Sat 05:12:20 PM 43.3719 -88.3264 104° East 460 529 29,000 49 Climbing Chicago Center
Sat 05:13:21 PM 43.3397 -88.1583 105° East 457 526 29,000  Level Chicago Center
Sat 05:14:23 PM 43.3083 -87.9922 105° East 454 522 29,000  Level Chicago Center
Sat 05:15:25 PM 43.2744 -87.8236 105° East 456 525 29,000  Level Chicago Center
Sat 05:16:27 PM 43.2356 -87.6261 105° East 460 529 29,000  Level Chicago Center
Sat 05:17:29 PM 43.2011 -87.4561 105° East 463 533 29,000  Level Chicago Center
Sat 05:18:30 PM 43.1697 -87.3011 105° East 469 540 29,000  Level Chicago Center
Sat 05:19:32 PM 43.1353 -87.1286 105° East 472 543 29,000  Level Chicago Center
Sat 05:20:34 PM 43.0925 -86.9222 106° East 471 542 29,000  Level Chicago Center
Sat 05:21:36 PM 43.0569 -86.7506 106° East 471 542 29,000  Level Chicago Center
Sat 05:22:38 PM 43.0200 -86.5797 106° East 471 542 29,000  Level Chicago Center
Sat 05:23:39 PM 42.9839 -86.4081 106° East 473 544 29,000  Level Chicago Center
Sat 05:24:41 PM 42.9464 -86.2383 107° East 473 544 29,000  Level Chicago Center
Sat 05:25:43 PM 42.9022 -86.0353 106° East 477 549 29,000  Level Chicago Center
Sat 05:26:45 PM 42.8675 -85.8667 106° East 474 545 29,000  Level Chicago Center
Sat 05:27:47 PM 42.8294 -85.6964 107° East 475 547 29,000  Level Chicago Center
Sat 05:28:48 PM 42.7928 -85.5261 106° East 473 544 29,000  Level Chicago Center
Sat 05:29:50 PM 42.7403 -85.3644 114° Southeast 470 541 29,000  Level Chicago Center
Sat 05:30:52 PM 42.6728 -85.1731 116° Southeast 469 540 29,000  Level Chicago Center
Sat 05:31:54 PM 42.6172 -85.0131 115° Southeast 470 541 29,000 435 Level Chicago Center
Sat 05:32:56 PM 42.5831 -84.8408 105° East 474 545 29,900 968 Climbing Chicago Center
Sat 05:33:58 PM 42.5639 -84.6686 99° East 467 537 31,000 537 Climbing Chicago Center
Sat 05:34:59 PM 42.5556 -84.4925 94° East 470 541 31,000  Level Chicago Center
Sat 05:36:01 PM 42.5558 -84.3144 90° East 477 549 31,000  Level Chicago Center
Sat 05:37:03 PM 42.5717 -84.1039 84° East 472 543 31,000  Level Chicago Center
Sat 05:38:05 PM 42.5839 -83.9286 85° East 468 539 31,000  Level Chicago Center
Sat 05:39:11 PM 42.5817 -83.7358 91° East 464 534 31,000  Level Cleveland Center
Sat 05:40:11 PM 42.5256 -83.5781 116° Southeast 442 509 31,000  Level Cleveland Center
Sat 05:41:11 PM 42.4700 -83.4572 122° Southeast 452 520 31,000  Level Cleveland Center
Sat 05:42:11 PM 42.3653 -83.3092 134° Southeast 452 520 31,000  Level Cleveland Center
Sat 05:43:11 PM 42.2761 -83.2069 140° Southeast 458 527 31,000  Level Cleveland Center
Sat 05:44:11 PM 42.1764 -83.0992 141° Southeast 463 533 31,000  Level Cleveland Center
Sat 05:45:11 PM 42.0786 -82.9892 140° Southeast 463 533 31,000  Level Cleveland Center
Sat 05:46:11 PM 41.9786 -82.8819 141° Southeast 463 533 31,000  Level Cleveland Center
Sat 05:47:11 PM 41.8786 -82.7725 141° Southeast 463 533 31,000  Level Cleveland Center
Sat 05:48:11 PM 41.7825 -82.6661 140° Southeast 457 526 31,000  Level Cleveland Center
Sat 05:49:11 PM 41.6908 -82.5464 136° Southeast 457 526 31,000  Level Cleveland Center
Sat 05:50:11 PM 41.5931 -82.4100 134° Southeast 462 532 31,000  Level Cleveland Center
Sat 05:51:11 PM 41.5156 -82.2969 132° Southeast 462 532 31,000  Level Cleveland Center
Sat 05:52:11 PM 41.4278 -82.1728 133° Southeast 462 532 31,000  Level Cleveland Center
Sat 05:53:11 PM 41.3336 -82.0322 132° Southeast 462 532 31,000  Level Cleveland Center
Sat 05:54:11 PM 41.2414 -81.9086 135° Southeast 462 532 31,000  Level Cleveland Center
Sat 05:55:11 PM 41.1553 -81.7883 134° Southeast 457 526 31,000  Level Cleveland Center
Sat 05:56:11 PM 41.0689 -81.6792 136° Southeast 464 534 31,000  Level Cleveland Center
Sat 05:57:11 PM 40.9844 -81.5569 132° Southeast 464 534 31,000  Level Cleveland Center
Sat 05:58:11 PM 40.8936 -81.4347 134° Southeast 459 528 31,000  Level Cleveland Center
Sat 05:59:11 PM 40.8069 -81.3128 133° Southeast 459 528 31,000  Level Cleveland Center
Sat 06:00:11 PM 40.7158 -81.1886 134° Southeast 464 534 31,000  Level Cleveland Center
Sat 06:01:11 PM 40.6289 -81.0700 134° Southeast 457 526 31,000  Level Cleveland Center
Sat 06:02:11 PM 40.5356 -80.9383 133° Southeast 452 520 31,000  Level Cleveland Center
Sat 06:03:11 PM 40.4483 -80.8178 134° Southeast 452 520 31,000  Level Cleveland Center
Sat 06:04:11 PM 40.3611 -80.7003 134° Southeast 452 520 31,000  Level Cleveland Center
Sat 06:05:11 PM 40.2756 -80.5831 134° Southeast 447 514 31,000  Level Cleveland Center
Sat 06:06:11 PM 40.1881 -80.4661 134° Southeast 447 514 31,000  Level Cleveland Center
Sat 06:07:11 PM 40.1044 -80.3469 133° Southeast 447 514 31,000  Level Cleveland Center
Sat 06:08:11 PM 40.0542 -80.2033 115° Southeast 434 499 31,000  Level Cleveland Center
Sat 06:09:42 PM 39.9797 -79.9833 114° Southeast 441 507 31,000  Level Washington Center
Sat 06:10:43 PM 39.9286 -79.8367 114° Southeast 436 502 31,000  Level Washington Center
Sat 06:11:43 PM 39.8775 -79.6903 114° Southeast 436 502 31,000 -50 Level Washington Center
Sat 06:12:44 PM 39.8258 -79.5469 115° Southeast 436 502 30,900 -694 Descending Washington Center
Sat 06:13:44 PM 39.7764 -79.4039 114° Southeast 431 496 29,600 -2,200 Descending Washington Center
Sat 06:14:44 PM 39.7247 -79.2553 114° Southeast 431 496 26,500 -2,339 Descending Washington Center
Sat 06:15:42 PM 39.6728 -79.1072 114° Southeast 437 503 25,000 -1,160 Descending Washington Center
Sat 06:16:43 PM 39.6378 -78.9517 106° East 442 509 24,200 -1,033 Descending Washington Center
Sat 06:17:44 PM 39.6042 -78.8075 107° East 447 514 22,900 -1,289 Descending Washington Center
Sat 06:18:44 PM 39.5686 -78.6550 107° East 452 520 21,600 -1,322 Descending Washington Center
Sat 06:19:42 PM 39.5369 -78.5031 105° East 440 506 20,300 -1,932 Descending Washington Center
Sat 06:20:42 PM 39.5028 -78.3592 107° East 435 501 17,800 -2,479 Descending Washington Center
Sat 06:21:43 PM 39.4706 -78.2181 106° East 423 487 15,300 -1,438 Descending Washington Center
Sat 06:22:43 PM 39.4464 -78.0803 103° East 407 468 14,900 -893 Descending Washington Center
Sat 06:23:44 PM 39.4428 -77.9375 92° East 389 448 13,500 -1,388 Descending Washington Center
Sat 06:24:44 PM 39.4433 -77.7978 90° East 389 448 12,100 -1,140 Descending Washington Center
Sat 06:25:45 PM 39.4436 -77.6636 90° East 384 442 11,200 -559 Descending Washington Center
Sat 06:26:42 PM 39.4417 -77.5317 91° East 373 429 11,000 -153 Descending Washington Center
Sat 06:27:43 PM 39.4436 -77.4108 89° East 354 407 10,900 -298 Descending Washington Center
Sat 06:28:43 PM 39.4536 -77.3036 83° East 320 368 10,400 -1,109 Descending Washington Center
Sat 06:29:42 PM 39.4656 -77.1883 82° East 296 341 8,700 -1,600 Descending Washington Center
Sat 06:30:43 PM 39.4564 -77.0858 97° East 286 329 7,200 -1,644 Descending Washington Center
Sat 06:32:08 PM 39.4167 -76.9500 111° Southeast 273 314 4,700 -1,644 Descending Potomac TRACON
Sat 06:33:09 PM 39.3500 -76.9000 150° Southeast 259 298 3,200 -850 Descending Potomac TRACON
Sat 06:34:08 PM 39.3000 -76.8500 142° Southeast 241 277 3,000 -203 Descending Potomac TRACON

Login

Don't have an account? Register now (free) for customized features, flight alerts, and more!